Main page
Satellite images 15-day forecastsClimateMarine weather Cyclones Lightning AirportsFAQ Newsletter About
Weather : Europe Africa North America South America Asia Australia-Oceania Others
Languages Contact

Warsaw, Poland

Fryderyk Chopin

latitude: 52-10N, longitude: 020-58E, elevation: 106 m


METAR: EPWA 240800Z 07010KT CAVOK 17/08 Q1021 NOSIG
short-TAF: out of date (34149 hours)
long-TAF: EPWA 240530Z 2406/2506 09012KT CAVOK PROB40 TEMPO 2409/2417 09015G25KT

Time: 10:24 (08:24 UTC)

Current weather observation

The report was made 24 minutes ago, at 08:00 UTC  
Wind 10 kt from east/northeast
Temperature 17°C
Humidity 55%
Pressure 1021 hPa
Visibility 10 km or more
no clouds below 1500 m and no cumulonimbus

Change units

Forecast

The report was made 2 hours and 51 minutes ago, at 05:33 UTC  
Forecast valid from 24 at 06 UTC to 25 at 06 UTC
Wind 12 kt from east
Visibility 10 km or more
no clouds below 1500 m and no cumulonimbus
Probability 40% :
Temporary
from 24 at 09 UTC to 24 at 17 UTC
Wind 15 kt from east with gusts up to 25 kt
The information on this site is subject to a disclaimer
Weather : Europe Africa North America South America Asia Australia-Oceania Others
Satellite images 15-day forecastsClimateMarine weather Cyclones Lightning AirportsFAQ Languages Contact Newsletter About